createdAt,value
2023-03-30T00:00:01.389Z,99.00
2023-03-30T00:10:01.232Z,104.10
2023-03-30T00:20:01.281Z,131.40
2023-03-30T00:30:01.108Z,99.80
2023-03-30T00:40:00.927Z,104.70
2023-03-30T00:50:01.133Z,107.30
2023-03-30T01:00:00.863Z,95.00
2023-03-30T01:10:02.169Z,88.10
2023-03-30T01:30:00.823Z,73.30
2023-03-30T01:40:01.135Z,87.50
2023-03-30T01:50:00.850Z,92.60
2023-03-30T02:00:01.106Z,99.80
2023-03-30T02:10:01.547Z,92.90
2023-03-30T02:20:00.881Z,95.30
2023-03-30T02:30:02.077Z,89.20
2023-03-30T02:40:01.141Z,99.10
2023-03-30T02:50:01.323Z,84.50
2023-03-30T03:00:01.218Z,78.40
2023-03-30T03:10:00.994Z,110.80
2023-03-30T03:20:00.878Z,99.70
2023-03-30T03:30:01.004Z,66.10
2023-03-30T03:40:01.032Z,85.40
2023-03-30T03:50:01.025Z,86.30
2023-03-30T04:00:01.285Z,74.00
2023-03-30T04:10:01.337Z,92.60
2023-03-30T04:20:00.917Z,84.60
2023-03-30T04:30:00.855Z,90.00
2023-03-30T04:40:00.179Z,104.80
2023-03-30T04:50:01.069Z,88.40
2023-03-30T05:00:01.570Z,93.80
2023-03-30T05:10:01.059Z,92.00
2023-03-30T05:20:01.647Z,83.00
2023-03-30T05:30:01.181Z,93.90
2023-03-30T05:40:00.848Z,95.50
2023-03-30T05:50:00.832Z,95.30
2023-03-30T06:00:01.055Z,119.30
2023-03-30T06:10:00.772Z,103.00
2023-03-30T06:20:01.071Z,80.10
2023-03-30T06:30:01.500Z,88.80
2023-03-30T06:40:00.915Z,97.90
2023-03-30T06:50:01.107Z,87.60
2023-03-30T07:00:00.947Z,98.20
2023-03-30T07:10:00.931Z,95.00
2023-03-30T07:20:01.244Z,121.30
2023-03-30T07:30:07.476Z,120.80
2023-03-30T07:40:00.256Z,158.40
2023-03-30T07:50:01.049Z,136.00
2023-03-30T08:00:01.291Z,137.80
2023-03-30T08:10:00.987Z,109.30
2023-03-30T08:20:00.871Z,98.70
2023-03-30T08:30:01.123Z,89.70
2023-03-30T08:40:01.288Z,99.40
2023-03-30T08:50:01.522Z,83.90
2023-03-30T09:00:00.895Z,120.90
2023-03-30T09:10:01.265Z,131.40
2023-03-30T09:20:01.504Z,116.10
2023-03-30T09:30:00.174Z,110.60
2023-03-30T09:40:02.236Z,106.30
2023-03-30T09:50:01.286Z,101.60
2023-03-30T10:00:01.512Z,99.10
2023-03-30T10:10:01.695Z,118.80
2023-03-30T10:20:07.451Z,80.50
2023-03-30T10:30:01.249Z,81.30
2023-03-30T10:40:01.062Z,95.60
2023-03-30T10:50:01.463Z,68.80
2023-03-30T11:00:01.742Z,72.30
2023-03-30T11:10:01.560Z,120.70
2023-03-30T11:20:01.315Z,130.00
2023-03-30T11:30:01.205Z,160.60
2023-03-30T11:40:01.248Z,135.00
2023-03-30T11:50:01.282Z,182.60
2023-03-30T12:00:01.509Z,421.70
2023-03-30T12:10:04.025Z,708.90
2023-03-30T12:20:02.185Z,643.00
2023-03-30T12:30:02.748Z,647.70
2023-03-30T12:40:01.111Z,674.90
2023-03-30T12:50:04.072Z,727.20
2023-03-30T13:00:01.131Z,804.50
2023-03-30T13:10:02.309Z,742.30
2023-03-30T13:20:01.120Z,544.60
2023-03-30T13:30:02.528Z,328.90
2023-03-30T13:40:01.071Z,248.70
2023-03-30T13:50:04.889Z,217.00
2023-03-30T14:00:02.696Z,218.90
2023-03-30T14:10:02.826Z,110.80
2023-03-30T14:20:01.364Z,163.10
2023-03-30T14:30:01.237Z,125.40
2023-03-30T14:40:01.635Z,183.80
2023-03-30T14:50:01.437Z,130.20
2023-03-30T15:00:01.077Z,123.30
2023-03-30T15:10:01.445Z,107.70
2023-03-30T15:20:01.043Z,154.70
2023-03-30T15:30:03.084Z,138.10
2023-03-30T15:40:01.080Z,162.70
2023-03-30T15:50:01.357Z,155.00
2023-03-30T16:00:01.056Z,214.30
2023-03-30T16:10:02.149Z,144.70
2023-03-30T16:20:01.315Z,125.10
2023-03-30T16:30:00.146Z,80.40
2023-03-30T16:40:01.579Z,125.20
2023-03-30T16:50:01.398Z,110.50
2023-03-30T17:00:01.473Z,118.70
2023-03-30T17:10:01.518Z,84.50
2023-03-30T17:20:01.310Z,96.10
2023-03-30T17:30:01.304Z,80.60
2023-03-30T17:40:00.670Z,89.90
2023-03-30T17:50:01.258Z,64.90
2023-03-30T18:00:01.592Z,90.60
2023-03-30T18:10:01.407Z,79.80
2023-03-30T18:20:00.833Z,107.70
2023-03-30T18:30:01.213Z,112.40
2023-03-30T18:40:00.918Z,56.20
2023-03-30T18:50:01.042Z,105.10
2023-03-30T19:00:02.676Z,109.20
2023-03-30T19:10:01.315Z,69.10
2023-03-30T19:20:01.098Z,100.30
2023-03-30T19:30:01.447Z,112.10
2023-03-30T19:40:00.917Z,98.10
2023-03-30T19:50:01.457Z,104.00
2023-03-30T20:00:00.874Z,71.20
2023-03-30T20:10:01.612Z,112.10
2023-03-30T20:20:00.885Z,85.50
2023-03-30T20:30:00.817Z,88.10
2023-03-30T20:40:03.223Z,76.50
2023-03-30T20:50:00.890Z,86.50
2023-03-30T21:00:00.842Z,89.00
2023-03-30T21:10:01.600Z,105.00
2023-03-30T21:20:01.059Z,129.10
2023-03-30T21:30:00.873Z,97.70
2023-03-30T21:40:00.885Z,76.60
2023-03-30T21:50:00.843Z,111.60
2023-03-30T22:00:01.122Z,85.20
2023-03-30T22:10:01.010Z,129.10
2023-03-30T22:20:00.872Z,144.90
2023-03-30T22:30:00.909Z,120.60
2023-03-30T22:40:01.964Z,131.10
2023-03-30T22:50:01.235Z,135.90
2023-03-30T23:00:01.634Z,98.10
2023-03-30T23:10:01.137Z,157.00
2023-03-30T23:20:01.854Z,155.10
2023-03-30T23:30:01.871Z,108.80
2023-03-30T23:40:01.531Z,104.50
2023-03-30T23:50:01.992Z,146.40
